sensor_id;sensor_type;location;lat;lon;timestamp;temperature;humidity
32139;DHT22;18644;48.700;9.210;2022-12-18T00:02:15;-7.40;57.70
32139;DHT22;18644;48.700;9.210;2022-12-18T00:04:42;-7.40;57.90
32139;DHT22;18644;48.700;9.210;2022-12-18T00:07:11;-7.40;58.10
32139;DHT22;18644;48.700;9.210;2022-12-18T00:09:37;-7.40;58.20
32139;DHT22;18644;48.700;9.210;2022-12-18T00:12:05;-7.40;58.20
32139;DHT22;18644;48.700;9.210;2022-12-18T00:14:32;-7.40;58.30
32139;DHT22;18644;48.700;9.210;2022-12-18T00:16:59;-7.40;58.30
32139;DHT22;18644;48.700;9.210;2022-12-18T00:19:26;-7.40;58.30
32139;DHT22;18644;48.700;9.210;2022-12-18T00:21:54;-7.40;58.30
32139;DHT22;18644;48.700;9.210;2022-12-18T00:24:22;-7.50;58.30
32139;DHT22;18644;48.700;9.210;2022-12-18T00:26:49;-7.50;58.30
32139;DHT22;18644;48.700;9.210;2022-12-18T00:29:16;-7.50;58.40
32139;DHT22;18644;48.700;9.210;2022-12-18T00:31:43;-7.50;58.70
32139;DHT22;18644;48.700;9.210;2022-12-18T00:34:11;-7.50;58.50
32139;DHT22;18644;48.700;9.210;2022-12-18T00:36:39;-7.50;58.40
32139;DHT22;18644;48.700;9.210;2022-12-18T00:39:07;-7.50;58.50
32139;DHT22;18644;48.700;9.210;2022-12-18T00:41:35;-7.40;58.60
32139;DHT22;18644;48.700;9.210;2022-12-18T00:44:20;-7.40;58.70
32139;DHT22;18644;48.700;9.210;2022-12-18T00:46:47;-7.40;58.80
32139;DHT22;18644;48.700;9.210;2022-12-18T00:49:15;-7.40;58.90
32139;DHT22;18644;48.700;9.210;2022-12-18T00:51:43;-7.40;59.00
32139;DHT22;18644;48.700;9.210;2022-12-18T00:54:10;-7.30;59.60
32139;DHT22;18644;48.700;9.210;2022-12-18T00:56:39;-7.30;59.00
32139;DHT22;18644;48.700;9.210;2022-12-18T00:59:06;-7.40;58.80
32139;DHT22;18644;48.700;9.210;2022-12-18T01:01:33;-7.30;58.80
32139;DHT22;18644;48.700;9.210;2022-12-18T01:04:01;-7.30;58.80
32139;DHT22;18644;48.700;9.210;2022-12-18T01:06:28;-7.30;58.70
32139;DHT22;18644;48.700;9.210;2022-12-18T01:08:56;-7.30;58.70
32139;DHT22;18644;48.700;9.210;2022-12-18T01:11:23;-7.40;58.60
32139;DHT22;18644;48.700;9.210;2022-12-18T01:13:52;-7.40;58.60
32139;DHT22;18644;48.700;9.210;2022-12-18T01:16:20;-7.40;58.60
32139;DHT22;18644;48.700;9.210;2022-12-18T01:18:47;-7.40;58.60
32139;DHT22;18644;48.700;9.210;2022-12-18T01:21:15;-7.40;58.60
32139;DHT22;18644;48.700;9.210;2022-12-18T01:23:42;-7.40;58.60
32139;DHT22;18644;48.700;9.210;2022-12-18T01:26:12;-7.40;58.70
32139;DHT22;18644;48.700;9.210;2022-12-18T01:28:41;-7.40;58.80
32139;DHT22;18644;48.700;9.210;2022-12-18T01:31:12;-7.40;59.00
32139;DHT22;18644;48.700;9.210;2022-12-18T01:33:40;-7.40;59.20
32139;DHT22;18644;48.700;9.210;2022-12-18T01:36:08;-7.40;59.30
32139;DHT22;18644;48.700;9.210;2022-12-18T01:38:41;-7.40;59.40
32139;DHT22;18644;48.700;9.210;2022-12-18T01:41:08;-7.40;59.50
32139;DHT22;18644;48.700;9.210;2022-12-18T01:43:48;-7.40;59.60
32139;DHT22;18644;48.700;9.210;2022-12-18T01:46:19;-7.40;59.70
32139;DHT22;18644;48.700;9.210;2022-12-18T01:48:49;-7.30;59.80
32139;DHT22;18644;48.700;9.210;2022-12-18T01:51:20;-7.30;59.80
32139;DHT22;18644;48.700;9.210;2022-12-18T01:53:48;-7.30;59.70
32139;DHT22;18644;48.700;9.210;2022-12-18T01:56:16;-7.30;59.70
32139;DHT22;18644;48.700;9.210;2022-12-18T01:58:50;-7.30;59.80
32139;DHT22;18644;48.700;9.210;2022-12-18T02:01:23;-7.30;59.90
32139;DHT22;18644;48.700;9.210;2022-12-18T02:03:51;-7.30;59.90
32139;DHT22;18644;48.700;9.210;2022-12-18T02:06:21;-7.30;59.80
32139;DHT22;18644;48.700;9.210;2022-12-18T02:09:02;-7.30;59.80
32139;DHT22;18644;48.700;9.210;2022-12-18T02:11:42;-7.30;59.70
32139;DHT22;18644;48.700;9.210;2022-12-18T02:14:18;-7.30;59.60
32139;DHT22;18644;48.700;9.210;2022-12-18T02:16:54;-7.30;59.60
32139;DHT22;18644;48.700;9.210;2022-12-18T02:19:44;-7.30;59.50
32139;DHT22;18644;48.700;9.210;2022-12-18T02:22:27;-7.30;59.50
32139;DHT22;18644;48.700;9.210;2022-12-18T02:25:10;-7.30;59.50
32139;DHT22;18644;48.700;9.210;2022-12-18T02:27:44;-7.30;59.50
32139;DHT22;18644;48.700;9.210;2022-12-18T02:30:12;-7.30;59.50
32139;DHT22;18644;48.700;9.210;2022-12-18T02:32:41;-7.40;59.40
32139;DHT22;18644;48.700;9.210;2022-12-18T02:35:17;-7.40;59.40
32139;DHT22;18644;48.700;9.210;2022-12-18T02:37:49;-7.40;59.30
32139;DHT22;18644;48.700;9.210;2022-12-18T02:40:17;-7.40;59.20
32139;DHT22;18644;48.700;9.210;2022-12-18T02:42:46;-7.40;59.20
32139;DHT22;18644;48.700;9.210;2022-12-18T02:45:13;-7.40;59.10
32139;DHT22;18644;48.700;9.210;2022-12-18T02:47:43;-7.40;59.00
32139;DHT22;18644;48.700;9.210;2022-12-18T02:50:16;-7.50;58.90
32139;DHT22;18644;48.700;9.210;2022-12-18T02:52:55;-7.50;58.80
32139;DHT22;18644;48.700;9.210;2022-12-18T02:55:38;-7.60;58.70
32139;DHT22;18644;48.700;9.210;2022-12-18T02:58:17;-7.60;58.60
32139;DHT22;18644;48.700;9.210;2022-12-18T03:00:50;-7.70;58.50
32139;DHT22;18644;48.700;9.210;2022-12-18T03:03:24;-7.70;58.60
32139;DHT22;18644;48.700;9.210;2022-12-18T03:05:55;-7.70;58.60
32139;DHT22;18644;48.700;9.210;2022-12-18T03:08:27;-7.80;58.60
32139;DHT22;18644;48.700;9.210;2022-12-18T03:10:58;-7.80;58.60
32139;DHT22;18644;48.700;9.210;2022-12-18T03:13:32;-7.80;58.60
32139;DHT22;18644;48.700;9.210;2022-12-18T03:16:00;-7.80;58.60
32139;DHT22;18644;48.700;9.210;2022-12-18T03:18:32;-7.90;58.70
32139;DHT22;18644;48.700;9.210;2022-12-18T03:21:05;-7.90;58.70
32139;DHT22;18644;48.700;9.210;2022-12-18T03:23:38;-7.90;58.70
32139;DHT22;18644;48.700;9.210;2022-12-18T03:26:10;-7.90;58.70
32139;DHT22;18644;48.700;9.210;2022-12-18T03:28:45;-7.90;58.70
32139;DHT22;18644;48.700;9.210;2022-12-18T03:31:14;-8.00;58.60
32139;DHT22;18644;48.700;9.210;2022-12-18T03:33:43;-8.00;58.60
32139;DHT22;18644;48.700;9.210;2022-12-18T03:36:14;-8.00;58.60
32139;DHT22;18644;48.700;9.210;2022-12-18T03:38:41;-8.10;58.70
32139;DHT22;18644;48.700;9.210;2022-12-18T03:41:16;-8.10;58.60
32139;DHT22;18644;48.700;9.210;2022-12-18T03:43:52;-8.10;58.60
32139;DHT22;18644;48.700;9.210;2022-12-18T03:46:26;-8.20;58.40
32139;DHT22;18644;48.700;9.210;2022-12-18T03:49:01;-8.20;58.30
32139;DHT22;18644;48.700;9.210;2022-12-18T03:51:36;-8.20;58.20
32139;DHT22;18644;48.700;9.210;2022-12-18T03:54:07;-8.30;58.20
32139;DHT22;18644;48.700;9.210;2022-12-18T03:56:38;-8.30;58.20
32139;DHT22;18644;48.700;9.210;2022-12-18T03:59:11;-8.40;58.10
32139;DHT22;18644;48.700;9.210;2022-12-18T04:01:41;-8.40;58.20
32139;DHT22;18644;48.700;9.210;2022-12-18T04:04:11;-8.40;58.10
32139;DHT22;18644;48.700;9.210;2022-12-18T04:06:40;-8.50;58.10
32139;DHT22;18644;48.700;9.210;2022-12-18T04:09:07;-8.50;58.10
32139;DHT22;18644;48.700;9.210;2022-12-18T04:11:34;-8.60;57.90
32139;DHT22;18644;48.700;9.210;2022-12-18T04:14:01;-8.60;57.90
32139;DHT22;18644;48.700;9.210;2022-12-18T04:16:31;-8.70;57.80
32139;DHT22;18644;48.700;9.210;2022-12-18T04:18:57;-8.70;57.70
32139;DHT22;18644;48.700;9.210;2022-12-18T04:21:24;-8.80;57.70
32139;DHT22;18644;48.700;9.210;2022-12-18T04:23:51;-8.80;57.70
32139;DHT22;18644;48.700;9.210;2022-12-18T04:26:18;-8.90;57.60
32139;DHT22;18644;48.700;9.210;2022-12-18T04:28:45;-8.90;57.60
32139;DHT22;18644;48.700;9.210;2022-12-18T04:31:13;-9.00;57.50
32139;DHT22;18644;48.700;9.210;2022-12-18T04:33:41;-9.00;57.60
32139;DHT22;18644;48.700;9.210;2022-12-18T04:36:08;-9.10;57.60
32139;DHT22;18644;48.700;9.210;2022-12-18T04:38:35;-9.10;57.60
32139;DHT22;18644;48.700;9.210;2022-12-18T04:41:02;-9.10;57.60
32139;DHT22;18644;48.700;9.210;2022-12-18T04:43:29;-9.20;57.60
32139;DHT22;18644;48.700;9.210;2022-12-18T04:46:01;-9.20;58.00
32139;DHT22;18644;48.700;9.210;2022-12-18T04:48:29;-9.20;57.80
32139;DHT22;18644;48.700;9.210;2022-12-18T04:50:57;-9.30;57.80
32139;DHT22;18644;48.700;9.210;2022-12-18T04:53:24;-9.30;57.80
32139;DHT22;18644;48.700;9.210;2022-12-18T04:56:02;-9.30;57.80
32139;DHT22;18644;48.700;9.210;2022-12-18T04:58:30;-9.30;57.90
32139;DHT22;18644;48.700;9.210;2022-12-18T05:00:57;-9.40;57.80
32139;DHT22;18644;48.700;9.210;2022-12-18T05:03:24;-9.40;57.70
32139;DHT22;18644;48.700;9.210;2022-12-18T05:05:52;-9.40;57.60
32139;DHT22;18644;48.700;9.210;2022-12-18T05:08:20;-9.50;57.50
32139;DHT22;18644;48.700;9.210;2022-12-18T05:10:47;-9.50;57.50
32139;DHT22;18644;48.700;9.210;2022-12-18T05:13:14;-9.50;57.50
32139;DHT22;18644;48.700;9.210;2022-12-18T05:15:41;-9.60;57.70
32139;DHT22;18644;48.700;9.210;2022-12-18T05:18:08;-9.60;57.70
32139;DHT22;18644;48.700;9.210;2022-12-18T05:20:35;-9.60;57.80
32139;DHT22;18644;48.700;9.210;2022-12-18T05:23:02;-9.60;57.70
32139;DHT22;18644;48.700;9.210;2022-12-18T05:25:30;-9.70;57.70
32139;DHT22;18644;48.700;9.210;2022-12-18T05:27:57;-9.70;57.70
32139;DHT22;18644;48.700;9.210;2022-12-18T05:30:24;-9.70;57.60
32139;DHT22;18644;48.700;9.210;2022-12-18T05:32:51;-9.80;57.50
32139;DHT22;18644;48.700;9.210;2022-12-18T05:35:18;-9.80;57.40
32139;DHT22;18644;48.700;9.210;2022-12-18T05:37:45;-9.80;57.30
32139;DHT22;18644;48.700;9.210;2022-12-18T05:40:12;-9.90;57.30
32139;DHT22;18644;48.700;9.210;2022-12-18T05:42:40;-9.90;57.30
32139;DHT22;18644;48.700;9.210;2022-12-18T05:45:08;-10.00;57.30
32139;DHT22;18644;48.700;9.210;2022-12-18T05:47:35;-10.00;57.30
32139;DHT22;18644;48.700;9.210;2022-12-18T05:50:03;-10.10;57.20
32139;DHT22;18644;48.700;9.210;2022-12-18T05:52:30;-10.10;57.20
32139;DHT22;18644;48.700;9.210;2022-12-18T05:54:57;-10.10;57.30
32139;DHT22;18644;48.700;9.210;2022-12-18T05:57:24;-10.10;57.40
32139;DHT22;18644;48.700;9.210;2022-12-18T05:59:53;-10.20;57.40
32139;DHT22;18644;48.700;9.210;2022-12-18T06:02:19;-10.20;57.50
32139;DHT22;18644;48.700;9.210;2022-12-18T06:04:47;-10.20;57.50
32139;DHT22;18644;48.700;9.210;2022-12-18T06:07:14;-10.20;57.60
32139;DHT22;18644;48.700;9.210;2022-12-18T06:09:41;-10.20;57.70
32139;DHT22;18644;48.700;9.210;2022-12-18T06:12:08;-10.20;57.70
32139;DHT22;18644;48.700;9.210;2022-12-18T06:14:36;-10.20;57.70
32139;DHT22;18644;48.700;9.210;2022-12-18T06:17:04;-10.30;57.70
32139;DHT22;18644;48.700;9.210;2022-12-18T06:19:31;-10.30;57.60
32139;DHT22;18644;48.700;9.210;2022-12-18T06:21:58;-10.30;57.60
32139;DHT22;18644;48.700;9.210;2022-12-18T06:24:25;-10.30;57.50
32139;DHT22;18644;48.700;9.210;2022-12-18T06:26:52;-10.30;57.50
32139;DHT22;18644;48.700;9.210;2022-12-18T06:29:19;-10.40;57.30
32139;DHT22;18644;48.700;9.210;2022-12-18T06:31:45;-10.40;57.20
32139;DHT22;18644;48.700;9.210;2022-12-18T06:34:14;-10.50;57.10
32139;DHT22;18644;48.700;9.210;2022-12-18T06:36:41;-10.50;57.00
32139;DHT22;18644;48.700;9.210;2022-12-18T06:39:07;-10.60;57.00
32139;DHT22;18644;48.700;9.210;2022-12-18T06:41:34;-10.60;57.00
32139;DHT22;18644;48.700;9.210;2022-12-18T06:44:01;-10.60;57.00
32139;DHT22;18644;48.700;9.210;2022-12-18T06:46:28;-10.70;56.80
32139;DHT22;18644;48.700;9.210;2022-12-18T06:48:55;-10.70;56.80
32139;DHT22;18644;48.700;9.210;2022-12-18T06:51:24;-10.70;56.80
32139;DHT22;18644;48.700;9.210;2022-12-18T06:53:51;-10.80;56.80
32139;DHT22;18644;48.700;9.210;2022-12-18T06:56:18;-10.90;56.80
32139;DHT22;18644;48.700;9.210;2022-12-18T06:58:45;-10.90;56.80
32139;DHT22;18644;48.700;9.210;2022-12-18T07:01:13;-10.90;56.90
32139;DHT22;18644;48.700;9.210;2022-12-18T07:03:41;-10.90;57.00
32139;DHT22;18644;48.700;9.210;2022-12-18T07:06:14;-10.90;57.10
32139;DHT22;18644;48.700;9.210;2022-12-18T07:08:43;-10.90;57.20
32139;DHT22;18644;48.700;9.210;2022-12-18T07:11:10;-11.00;57.90
32139;DHT22;18644;48.700;9.210;2022-12-18T07:13:36;-10.90;57.40
32139;DHT22;18644;48.700;9.210;2022-12-18T07:16:06;-10.90;57.50
32139;DHT22;18644;48.700;9.210;2022-12-18T07:18:33;-10.90;57.60
32139;DHT22;18644;48.700;9.210;2022-12-18T07:21:03;-10.90;57.60
32139;DHT22;18644;48.700;9.210;2022-12-18T07:23:32;-10.90;57.60
32139;DHT22;18644;48.700;9.210;2022-12-18T07:26:05;-10.90;57.60
32139;DHT22;18644;48.700;9.210;2022-12-18T07:28:35;-10.90;57.60
32139;DHT22;18644;48.700;9.210;2022-12-18T07:31:03;-10.90;57.60
32139;DHT22;18644;48.700;9.210;2022-12-18T07:33:31;-10.90;57.70
32139;DHT22;18644;48.700;9.210;2022-12-18T07:35:59;-10.90;57.70
32139;DHT22;18644;48.700;9.210;2022-12-18T07:38:26;-10.90;57.70
32139;DHT22;18644;48.700;9.210;2022-12-18T07:40:53;-10.90;57.80
32139;DHT22;18644;48.700;9.210;2022-12-18T07:43:21;-10.90;57.90
32139;DHT22;18644;48.700;9.210;2022-12-18T07:45:49;-10.80;58.00
32139;DHT22;18644;48.700;9.210;2022-12-18T07:48:16;-10.80;58.50
32139;DHT22;18644;48.700;9.210;2022-12-18T07:50:43;-10.70;58.30
32139;DHT22;18644;48.700;9.210;2022-12-18T07:53:10;-10.70;58.40
32139;DHT22;18644;48.700;9.210;2022-12-18T07:55:37;-10.60;58.60
32139;DHT22;18644;48.700;9.210;2022-12-18T07:58:04;-10.50;58.80
32139;DHT22;18644;48.700;9.210;2022-12-18T08:00:32;-10.50;58.90
32139;DHT22;18644;48.700;9.210;2022-12-18T08:02:59;-10.40;59.10
32139;DHT22;18644;48.700;9.210;2022-12-18T08:05:27;-10.30;59.30
32139;DHT22;18644;48.700;9.210;2022-12-18T08:07:54;-10.20;59.50
32139;DHT22;18644;48.700;9.210;2022-12-18T08:10:22;-10.00;59.70
32139;DHT22;18644;48.700;9.210;2022-12-18T08:12:49;-9.90;59.90
32139;DHT22;18644;48.700;9.210;2022-12-18T08:15:17;-9.70;60.10
32139;DHT22;18644;48.700;9.210;2022-12-18T08:17:45;-9.50;60.20
32139;DHT22;18644;48.700;9.210;2022-12-18T08:20:12;-9.40;60.00
32139;DHT22;18644;48.700;9.210;2022-12-18T08:22:40;-9.30;60.00
32139;DHT22;18644;48.700;9.210;2022-12-18T08:25:08;-9.10;60.00
32139;DHT22;18644;48.700;9.210;2022-12-18T08:27:35;-9.00;59.90
32139;DHT22;18644;48.700;9.210;2022-12-18T08:30:03;-8.90;59.90
32139;DHT22;18644;48.700;9.210;2022-12-18T08:32:31;-8.80;59.90
32139;DHT22;18644;48.700;9.210;2022-12-18T08:35:00;-8.70;59.90
32139;DHT22;18644;48.700;9.210;2022-12-18T08:37:27;-8.60;60.00
32139;DHT22;18644;48.700;9.210;2022-12-18T08:39:54;-8.50;60.10
32139;DHT22;18644;48.700;9.210;2022-12-18T08:42:21;-8.30;60.20
32139;DHT22;18644;48.700;9.210;2022-12-18T08:45:06;-8.20;60.30
32139;DHT22;18644;48.700;9.210;2022-12-18T08:47:34;-8.10;60.40
32139;DHT22;18644;48.700;9.210;2022-12-18T08:50:03;-7.90;60.60
32139;DHT22;18644;48.700;9.210;2022-12-18T08:52:32;-7.80;60.80
32139;DHT22;18644;48.700;9.210;2022-12-18T08:54:59;-7.60;60.90
32139;DHT22;18644;48.700;9.210;2022-12-18T08:57:26;-7.50;61.00
32139;DHT22;18644;48.700;9.210;2022-12-18T08:59:52;-7.40;61.10
32139;DHT22;18644;48.700;9.210;2022-12-18T09:02:19;-7.20;61.20
32139;DHT22;18644;48.700;9.210;2022-12-18T09:04:46;-7.00;61.40
32139;DHT22;18644;48.700;9.210;2022-12-18T09:07:15;-6.90;61.60
32139;DHT22;18644;48.700;9.210;2022-12-18T09:09:42;-6.70;61.70
32139;DHT22;18644;48.700;9.210;2022-12-18T09:12:09;-6.50;61.80
32139;DHT22;18644;48.700;9.210;2022-12-18T09:14:36;-6.40;61.90
32139;DHT22;18644;48.700;9.210;2022-12-18T09:17:03;-6.20;62.00
32139;DHT22;18644;48.700;9.210;2022-12-18T09:19:30;-6.00;62.10
32139;DHT22;18644;48.700;9.210;2022-12-18T09:21:57;-5.80;62.30
32139;DHT22;18644;48.700;9.210;2022-12-18T09:24:25;-5.60;62.50
32139;DHT22;18644;48.700;9.210;2022-12-18T09:26:53;-5.50;62.50
32139;DHT22;18644;48.700;9.210;2022-12-18T09:29:21;-5.30;62.50
32139;DHT22;18644;48.700;9.210;2022-12-18T09:31:48;-5.10;62.50
32139;DHT22;18644;48.700;9.210;2022-12-18T09:34:16;-4.90;62.50
32139;DHT22;18644;48.700;9.210;2022-12-18T09:36:43;-4.70;62.60
32139;DHT22;18644;48.700;9.210;2022-12-18T09:39:12;-4.50;62.70
32139;DHT22;18644;48.700;9.210;2022-12-18T09:41:44;-4.40;62.70
32139;DHT22;18644;48.700;9.210;2022-12-18T09:44:18;-4.10;62.90
32139;DHT22;18644;48.700;9.210;2022-12-18T09:46:51;-3.90;62.80
32139;DHT22;18644;48.700;9.210;2022-12-18T09:49:24;-3.70;62.80
32139;DHT22;18644;48.700;9.210;2022-12-18T09:51:56;-3.50;62.70
32139;DHT22;18644;48.700;9.210;2022-12-18T09:54:32;-3.30;62.80
32139;DHT22;18644;48.700;9.210;2022-12-18T09:57:03;-3.10;62.90
32139;DHT22;18644;48.700;9.210;2022-12-18T09:59:33;-2.80;63.10
32139;DHT22;18644;48.700;9.210;2022-12-18T10:02:13;-2.60;63.20
32139;DHT22;18644;48.700;9.210;2022-12-18T10:04:42;-2.30;63.40
32139;DHT22;18644;48.700;9.210;2022-12-18T10:07:13;-2.00;63.50
32139;DHT22;18644;48.700;9.210;2022-12-18T10:09:49;-1.70;63.40
32139;DHT22;18644;48.700;9.210;2022-12-18T10:12:25;-1.40;63.10
32139;DHT22;18644;48.700;9.210;2022-12-18T10:14:58;-1.10;62.80
32139;DHT22;18644;48.700;9.210;2022-12-18T10:17:35;-0.90;62.50
32139;DHT22;18644;48.700;9.210;2022-12-18T10:20:13;-0.70;62.50
32139;DHT22;18644;48.700;9.210;2022-12-18T10:22:50;-0.50;61.70
32139;DHT22;18644;48.700;9.210;2022-12-18T10:25:24;-0.20;61.40
32139;DHT22;18644;48.700;9.210;2022-12-18T10:27:57;-0.10;61.00
32139;DHT22;18644;48.700;9.210;2022-12-18T10:30:26;0.10;60.70
32139;DHT22;18644;48.700;9.210;2022-12-18T10:32:53;0.30;60.70
32139;DHT22;18644;48.700;9.210;2022-12-18T10:35:23;0.50;60.60
32139;DHT22;18644;48.700;9.210;2022-12-18T10:38:03;0.60;60.50
32139;DHT22;18644;48.700;9.210;2022-12-18T10:40:32;0.80;60.50
32139;DHT22;18644;48.700;9.210;2022-12-18T10:43:12;1.00;60.50
32139;DHT22;18644;48.700;9.210;2022-12-18T10:45:41;1.20;60.50
32139;DHT22;18644;48.700;9.210;2022-12-18T10:48:18;1.40;60.50
32139;DHT22;18644;48.700;9.210;2022-12-18T10:50:48;1.60;60.30
32139;DHT22;18644;48.700;9.210;2022-12-18T10:53:20;1.80;60.10
32139;DHT22;18644;48.700;9.210;2022-12-18T10:55:48;1.90;59.90
32139;DHT22;18644;48.700;9.210;2022-12-18T10:58:23;2.10;59.70
32139;DHT22;18644;48.700;9.210;2022-12-18T11:01:12;2.20;59.60
32139;DHT22;18644;48.700;9.210;2022-12-18T11:03:43;2.40;59.30
32139;DHT22;18644;48.700;9.210;2022-12-18T11:06:12;2.50;59.20
32139;DHT22;18644;48.700;9.210;2022-12-18T11:08:43;2.60;59.20
32139;DHT22;18644;48.700;9.210;2022-12-18T11:11:20;2.80;59.00
32139;DHT22;18644;48.700;9.210;2022-12-18T11:14:00;2.90;58.90
32139;DHT22;18644;48.700;9.210;2022-12-18T11:16:30;3.00;58.80
32139;DHT22;18644;48.700;9.210;2022-12-18T11:19:15;3.10;58.80
32139;DHT22;18644;48.700;9.210;2022-12-18T11:21:47;3.30;58.80
32139;DHT22;18644;48.700;9.210;2022-12-18T11:24:26;3.40;58.80
32139;DHT22;18644;48.700;9.210;2022-12-18T11:26:57;3.50;58.60
32139;DHT22;18644;48.700;9.210;2022-12-18T11:29:31;3.60;58.50
32139;DHT22;18644;48.700;9.210;2022-12-18T11:35:13;3.80;58.10
32139;DHT22;18644;48.700;9.210;2022-12-18T11:37:46;3.90;58.00
32139;DHT22;18644;48.700;9.210;2022-12-18T11:40:19;4.00;57.80
32139;DHT22;18644;48.700;9.210;2022-12-18T11:42:48;4.00;57.50
32139;DHT22;18644;48.700;9.210;2022-12-18T11:45:25;4.10;57.30
32139;DHT22;18644;48.700;9.210;2022-12-18T11:47:59;4.10;57.50
32139;DHT22;18644;48.700;9.210;2022-12-18T11:50:33;4.20;57.40
32139;DHT22;18644;48.700;9.210;2022-12-18T11:53:04;4.20;57.60
32139;DHT22;18644;48.700;9.210;2022-12-18T11:55:37;4.20;57.70
32139;DHT22;18644;48.700;9.210;2022-12-18T11:58:14;4.40;57.40
32139;DHT22;18644;48.700;9.210;2022-12-18T12:00:51;4.40;57.70
32139;DHT22;18644;48.700;9.210;2022-12-18T12:03:36;4.50;57.50
32139;DHT22;18644;48.700;9.210;2022-12-18T12:06:15;4.60;57.50
32139;DHT22;18644;48.700;9.210;2022-12-18T12:08:58;4.60;57.10
32139;DHT22;18644;48.700;9.210;2022-12-18T12:11:35;4.70;56.80
32139;DHT22;18644;48.700;9.210;2022-12-18T12:14:17;4.70;56.60
32139;DHT22;18644;48.700;9.210;2022-12-18T12:16:58;4.70;56.20
32139;DHT22;18644;48.700;9.210;2022-12-18T12:19:38;4.70;56.00
32139;DHT22;18644;48.700;9.210;2022-12-18T12:22:20;4.70;55.90
32139;DHT22;18644;48.700;9.210;2022-12-18T12:25:00;4.60;55.90
32139;DHT22;18644;48.700;9.210;2022-12-18T12:27:38;4.60;55.90
32139;DHT22;18644;48.700;9.210;2022-12-18T12:30:11;4.50;55.90
32139;DHT22;18644;48.700;9.210;2022-12-18T12:32:57;4.50;55.70
32139;DHT22;18644;48.700;9.210;2022-12-18T12:35:42;4.40;55.60
32139;DHT22;18644;48.700;9.210;2022-12-18T12:38:17;4.40;55.60
32139;DHT22;18644;48.700;9.210;2022-12-18T12:40:49;4.40;55.60
32139;DHT22;18644;48.700;9.210;2022-12-18T12:43:28;4.30;55.50
32139;DHT22;18644;48.700;9.210;2022-12-18T12:46:00;4.20;55.40
32139;DHT22;18644;48.700;9.210;2022-12-18T12:48:40;4.20;55.40
32139;DHT22;18644;48.700;9.210;2022-12-18T12:51:14;4.10;55.40
32139;DHT22;18644;48.700;9.210;2022-12-18T12:53:43;4.10;55.60
32139;DHT22;18644;48.700;9.210;2022-12-18T12:56:14;4.10;55.90
32139;DHT22;18644;48.700;9.210;2022-12-18T12:58:49;4.10;56.00
32139;DHT22;18644;48.700;9.210;2022-12-18T13:01:28;4.10;56.00
32139;DHT22;18644;48.700;9.210;2022-12-18T13:04:10;4.10;56.00
32139;DHT22;18644;48.700;9.210;2022-12-18T13:06:46;4.10;55.90
32139;DHT22;18644;48.700;9.210;2022-12-18T13:09:14;4.10;55.70
32139;DHT22;18644;48.700;9.210;2022-12-18T13:11:42;4.10;55.70
32139;DHT22;18644;48.700;9.210;2022-12-18T13:14:30;4.10;55.60
32139;DHT22;18644;48.700;9.210;2022-12-18T13:17:29;4.10;55.60
32139;DHT22;18644;48.700;9.210;2022-12-18T13:20:07;4.10;55.50
32139;DHT22;18644;48.700;9.210;2022-12-18T13:22:38;4.00;55.50
32139;DHT22;18644;48.700;9.210;2022-12-18T13:25:26;4.00;55.50
32139;DHT22;18644;48.700;9.210;2022-12-18T13:27:59;4.00;55.40
32139;DHT22;18644;48.700;9.210;2022-12-18T13:30:46;4.00;55.50
32139;DHT22;18644;48.700;9.210;2022-12-18T13:33:39;4.00;55.40
32139;DHT22;18644;48.700;9.210;2022-12-18T13:36:26;4.00;55.90
32139;DHT22;18644;48.700;9.210;2022-12-18T13:42:38;3.90;55.40
32139;DHT22;18644;48.700;9.210;2022-12-18T13:45:37;3.90;55.40
32139;DHT22;18644;48.700;9.210;2022-12-18T13:48:19;3.90;55.30
32139;DHT22;18644;48.700;9.210;2022-12-18T13:50:59;3.90;55.50
32139;DHT22;18644;48.700;9.210;2022-12-18T13:53:34;3.90;55.40
32139;DHT22;18644;48.700;9.210;2022-12-18T13:56:04;3.80;55.40
32139;DHT22;18644;48.700;9.210;2022-12-18T13:58:32;3.80;55.40
32139;DHT22;18644;48.700;9.210;2022-12-18T14:00:59;3.80;55.40
32139;DHT22;18644;48.700;9.210;2022-12-18T14:03:29;3.80;55.30
32139;DHT22;18644;48.700;9.210;2022-12-18T14:06:01;3.70;55.30
32139;DHT22;18644;48.700;9.210;2022-12-18T14:08:37;3.70;55.30
32139;DHT22;18644;48.700;9.210;2022-12-18T14:11:06;3.70;55.30
32139;DHT22;18644;48.700;9.210;2022-12-18T14:13:36;3.70;55.30
32139;DHT22;18644;48.700;9.210;2022-12-18T14:16:06;3.60;55.30
32139;DHT22;18644;48.700;9.210;2022-12-18T14:18:41;3.60;55.20
32139;DHT22;18644;48.700;9.210;2022-12-18T14:21:21;3.50;55.10
32139;DHT22;18644;48.700;9.210;2022-12-18T14:24:03;3.50;55.10
32139;DHT22;18644;48.700;9.210;2022-12-18T14:26:37;3.40;55.00
32139;DHT22;18644;48.700;9.210;2022-12-18T14:29:19;3.30;55.00
32139;DHT22;18644;48.700;9.210;2022-12-18T14:32:12;3.20;54.90
32139;DHT22;18644;48.700;9.210;2022-12-18T14:34:42;3.10;54.90
32139;DHT22;18644;48.700;9.210;2022-12-18T14:37:10;3.10;54.90
32139;DHT22;18644;48.700;9.210;2022-12-18T14:39:39;3.00;54.90
32139;DHT22;18644;48.700;9.210;2022-12-18T14:42:10;2.90;54.90
32139;DHT22;18644;48.700;9.210;2022-12-18T14:44:37;2.80;54.90
32139;DHT22;18644;48.700;9.210;2022-12-18T14:47:04;2.70;54.90
32139;DHT22;18644;48.700;9.210;2022-12-18T14:49:32;2.60;54.80
32139;DHT22;18644;48.700;9.210;2022-12-18T14:52:01;2.50;54.70
32139;DHT22;18644;48.700;9.210;2022-12-18T14:54:30;2.40;54.60
32139;DHT22;18644;48.700;9.210;2022-12-18T14:57:01;2.30;54.50
32139;DHT22;18644;48.700;9.210;2022-12-18T14:59:30;2.20;54.50
32139;DHT22;18644;48.700;9.210;2022-12-18T15:02:01;2.10;54.60
32139;DHT22;18644;48.700;9.210;2022-12-18T15:04:32;2.00;54.60
32139;DHT22;18644;48.700;9.210;2022-12-18T15:07:13;1.80;54.60
32139;DHT22;18644;48.700;9.210;2022-12-18T15:09:43;1.70;54.60
32139;DHT22;18644;48.700;9.210;2022-12-18T15:12:26;1.60;54.60
32139;DHT22;18644;48.700;9.210;2022-12-18T15:14:55;1.50;54.60
32139;DHT22;18644;48.700;9.210;2022-12-18T15:17:23;1.40;54.60
32139;DHT22;18644;48.700;9.210;2022-12-18T15:19:52;1.30;54.50
32139;DHT22;18644;48.700;9.210;2022-12-18T15:22:24;1.10;54.50
32139;DHT22;18644;48.700;9.210;2022-12-18T15:24:53;1.00;54.50
32139;DHT22;18644;48.700;9.210;2022-12-18T15:27:28;0.90;54.50
32139;DHT22;18644;48.700;9.210;2022-12-18T15:30:20;0.70;54.50
32139;DHT22;18644;48.700;9.210;2022-12-18T15:32:49;0.60;54.70
32139;DHT22;18644;48.700;9.210;2022-12-18T15:35:19;0.50;54.80
32139;DHT22;18644;48.700;9.210;2022-12-18T15:37:47;0.40;55.00
32139;DHT22;18644;48.700;9.210;2022-12-18T15:40:15;0.30;55.20
32139;DHT22;18644;48.700;9.210;2022-12-18T15:42:45;0.20;55.40
32139;DHT22;18644;48.700;9.210;2022-12-18T15:45:31;0.10;55.30
32139;DHT22;18644;48.700;9.210;2022-12-18T15:47:58;0.00;55.40
32139;DHT22;18644;48.700;9.210;2022-12-18T15:50:25;0.00;55.60
32139;DHT22;18644;48.700;9.210;2022-12-18T15:52:53;-0.10;55.50
32139;DHT22;18644;48.700;9.210;2022-12-18T15:55:23;-0.20;55.40
32139;DHT22;18644;48.700;9.210;2022-12-18T15:58:10;-0.30;55.40
32139;DHT22;18644;48.700;9.210;2022-12-18T16:00:39;-0.40;55.40
32139;DHT22;18644;48.700;9.210;2022-12-18T16:03:06;-0.50;55.40
32139;DHT22;18644;48.700;9.210;2022-12-18T16:05:35;-0.50;55.60